N80275 TISX-TDPD
Flight info
| Callsign | N80275 |
|---|---|
| Flight time | 1h 4m |
| Altitude | 17000 |
| Route | HMLTN9 COY A555 DUNTA |
| Aircraft | BE99/L-SDFGRY/S |
Departure
| Time | 2026-04-29 19:44 |
|---|---|
| Airport | Henry E. Rohlsen Airport (TISX) |
Arrival
| Time | 2026-04-29 20:49 |
|---|---|
| Airport | Douglas-Charles Airport (TDPD) |
| Time | Latitude | Longitude | Altitude | Speed | Heading |
|---|---|---|---|---|---|
| 2026-04-29 19:32 | 17.69971 | -64.79600 | 70 ft | 0 kts | 227° |
| 2026-04-29 19:40 | 17.69970 | -64.79603 | 70 ft | 3 kts | 270° |
| 2026-04-29 19:40 | 17.70082 | -64.79661 | 70 ft | 21 kts | 301° |
| 2026-04-29 19:40 | 17.70036 | -64.79850 | 70 ft | 27 kts | 278° |
| 2026-04-29 19:40 | 17.70034 | -64.79985 | 70 ft | 11 kts | 266° |
| 2026-04-29 19:41 | 17.70030 | -64.80054 | 70 ft | 9 kts | 264° |
| 2026-04-29 19:41 | 17.70021 | -64.80138 | 70 ft | 12 kts | 264° |
| 2026-04-29 19:41 | 17.70013 | -64.80213 | 70 ft | 10 kts | 264° |
| 2026-04-29 19:41 | 17.69999 | -64.80352 | 70 ft | 24 kts | 262° |
| 2026-04-29 19:42 | 17.69984 | -64.80492 | 70 ft | 15 kts | 264° |
| 2026-04-29 19:42 | 17.69978 | -64.80561 | 70 ft | 14 kts | 264° |
| 2026-04-29 19:42 | 17.69962 | -64.80718 | 70 ft | 21 kts | 264° |
| 2026-04-29 19:42 | 17.69948 | -64.80852 | 70 ft | 15 kts | 263° |
| 2026-04-29 19:43 | 17.70006 | -64.80932 | 70 ft | 19 kts | 353° |
| 2026-04-29 19:43 | 17.70079 | -64.80911 | 70 ft | 6 kts | 78° |
| 2026-04-29 19:43 | 17.70079 | -64.80908 | 70 ft | 0 kts | 82° |
| 2026-04-29 19:43 | 17.70108 | -64.80613 | 70 ft | 104 kts | 85° |
| 2026-04-29 19:44 | 17.70221 | -64.79679 | 439 ft | 141 kts | 82° |
| 2026-04-29 19:44 | 17.70430 | -64.78595 | 859 ft | 170 kts | 79° |
| 2026-04-29 19:44 | 17.70676 | -64.77437 | 1742 ft | 158 kts | 79° |
| 2026-04-29 19:44 | 17.70925 | -64.76272 | 2393 ft | 155 kts | 78° |
| 2026-04-29 19:45 | 17.71241 | -64.75148 | 3139 ft | 185 kts | 69° |
| 2026-04-29 19:45 | 17.71866 | -64.73818 | 3371 ft | 221 kts | 65° |
| 2026-04-29 19:45 | 17.72562 | -64.72321 | 3597 ft | 234 kts | 67° |
| 2026-04-29 19:45 | 17.72918 | -64.70655 | 3848 ft | 235 kts | 90° |
| 2026-04-29 19:46 | 17.72575 | -64.69017 | 4104 ft | 236 kts | 113° |
| 2026-04-29 19:46 | 17.71724 | -64.67540 | 4371 ft | 229 kts | 126° |
| 2026-04-29 19:46 | 17.70723 | -64.66277 | 4617 ft | 221 kts | 130° |
| 2026-04-29 19:46 | 17.69678 | -64.65102 | 4867 ft | 221 kts | 132° |
| 2026-04-29 19:47 | 17.68613 | -64.63934 | 5118 ft | 227 kts | 132° |
| 2026-04-29 19:47 | 17.67516 | -64.62718 | 5371 ft | 232 kts | 132° |
| 2026-04-29 19:47 | 17.66402 | -64.61458 | 5624 ft | 236 kts | 131° |
| 2026-04-29 19:47 | 17.65284 | -64.60173 | 5878 ft | 240 kts | 131° |
| 2026-04-29 19:48 | 17.64163 | -64.58868 | 6128 ft | 242 kts | 131° |
| 2026-04-29 19:48 | 17.63417 | -64.57991 | 6295 ft | 243 kts | 130° |
| 2026-04-29 19:48 | 17.61920 | -64.56222 | 6628 ft | 246 kts | 130° |
| 2026-04-29 19:48 | 17.60785 | -64.54871 | 6880 ft | 247 kts | 130° |
| 2026-04-29 19:49 | 17.59647 | -64.53515 | 7230 ft | 246 kts | 130° |
| 2026-04-29 19:49 | 17.58518 | -64.52168 | 7580 ft | 245 kts | 130° |
| 2026-04-29 19:49 | 17.57388 | -64.50817 | 7932 ft | 246 kts | 130° |
| 2026-04-29 19:49 | 17.56262 | -64.49470 | 8282 ft | 247 kts | 130° |
| 2026-04-29 19:50 | 17.55140 | -64.48126 | 8629 ft | 248 kts | 130° |
| 2026-04-29 19:50 | 17.54000 | -64.46762 | 8980 ft | 249 kts | 130° |
| 2026-04-29 19:50 | 17.52852 | -64.45388 | 9331 ft | 251 kts | 130° |
| 2026-04-29 19:50 | 17.51691 | -64.43999 | 9684 ft | 253 kts | 130° |
| 2026-04-29 19:51 | 17.50529 | -64.42607 | 10034 ft | 255 kts | 130° |
| 2026-04-29 19:51 | 17.49350 | -64.41197 | 10386 ft | 258 kts | 131° |
| 2026-04-29 19:51 | 17.48164 | -64.39777 | 10737 ft | 260 kts | 131° |
| 2026-04-29 19:51 | 17.46977 | -64.38359 | 11085 ft | 262 kts | 131° |
| 2026-04-29 19:52 | 17.45767 | -64.36915 | 11438 ft | 264 kts | 131° |
| 2026-04-29 19:52 | 17.44548 | -64.35462 | 11789 ft | 266 kts | 130° |
| 2026-04-29 19:52 | 17.43320 | -64.33997 | 12139 ft | 269 kts | 130° |
| 2026-04-29 19:52 | 17.42079 | -64.32515 | 12491 ft | 271 kts | 131° |
| 2026-04-29 19:53 | 17.40830 | -64.31019 | 12842 ft | 274 kts | 131° |
| 2026-04-29 19:53 | 17.39566 | -64.29505 | 13195 ft | 276 kts | 132° |
| 2026-04-29 19:53 | 17.38306 | -64.27999 | 13544 ft | 278 kts | 132° |
| 2026-04-29 19:53 | 17.37025 | -64.26472 | 13895 ft | 279 kts | 132° |
| 2026-04-29 19:54 | 17.34449 | -64.23402 | 14597 ft | 281 kts | 132° |
| 2026-04-29 19:54 | 17.33157 | -64.21862 | 14948 ft | 281 kts | 133° |
| 2026-04-29 19:54 | 17.31880 | -64.20341 | 15294 ft | 282 kts | 133° |
| 2026-04-29 19:55 | 17.30582 | -64.18794 | 15645 ft | 282 kts | 133° |
| 2026-04-29 19:55 | 17.29284 | -64.17249 | 15996 ft | 282 kts | 133° |
| 2026-04-29 19:55 | 17.27986 | -64.15701 | 16347 ft | 282 kts | 133° |
| 2026-04-29 19:55 | 17.26682 | -64.14149 | 16699 ft | 282 kts | 133° |
| 2026-04-29 19:56 | 17.25372 | -64.12589 | 16879 ft | 288 kts | 133° |
| 2026-04-29 19:56 | 17.24050 | -64.11018 | 16970 ft | 295 kts | 133° |
| 2026-04-29 19:56 | 17.22678 | -64.09388 | 16992 ft | 301 kts | 133° |
| 2026-04-29 19:56 | 17.21281 | -64.07730 | 16993 ft | 306 kts | 133° |
| 2026-04-29 19:57 | 17.19864 | -64.06048 | 16993 ft | 308 kts | 133° |
| 2026-04-29 19:57 | 17.18924 | -64.04931 | 16992 ft | 310 kts | 133° |
| 2026-04-29 19:57 | 17.17007 | -64.02653 | 16995 ft | 311 kts | 133° |
| 2026-04-29 19:57 | 17.15587 | -64.00964 | 16995 ft | 312 kts | 133° |
| 2026-04-29 19:58 | 17.14147 | -63.99252 | 16996 ft | 313 kts | 133° |
| 2026-04-29 19:58 | 17.12709 | -63.97542 | 16996 ft | 313 kts | 133° |
| 2026-04-29 19:58 | 17.11273 | -63.95835 | 16996 ft | 312 kts | 133° |
| 2026-04-29 19:58 | 17.09837 | -63.94130 | 16996 ft | 312 kts | 133° |
| 2026-04-29 19:59 | 17.08422 | -63.92447 | 16996 ft | 312 kts | 133° |
| 2026-04-29 19:59 | 17.06991 | -63.90747 | 16996 ft | 311 kts | 133° |
| 2026-04-29 19:59 | 17.05554 | -63.89040 | 16997 ft | 311 kts | 133° |
| 2026-04-29 19:59 | 17.04122 | -63.87339 | 16997 ft | 311 kts | 133° |
| 2026-04-29 20:00 | 17.02688 | -63.85636 | 16997 ft | 311 kts | 133° |
| 2026-04-29 20:00 | 17.01260 | -63.83941 | 16997 ft | 311 kts | 133° |
| 2026-04-29 20:00 | 16.99831 | -63.82244 | 16997 ft | 311 kts | 133° |
| 2026-04-29 20:00 | 16.98418 | -63.80568 | 16998 ft | 311 kts | 133° |
| 2026-04-29 20:01 | 16.96986 | -63.78869 | 16998 ft | 311 kts | 133° |
| 2026-04-29 20:01 | 16.95552 | -63.77169 | 16998 ft | 311 kts | 133° |
| 2026-04-29 20:01 | 16.94125 | -63.75477 | 16998 ft | 311 kts | 133° |
| 2026-04-29 20:01 | 16.92695 | -63.73782 | 16998 ft | 311 kts | 133° |
| 2026-04-29 20:02 | 16.91262 | -63.72083 | 16998 ft | 311 kts | 133° |
| 2026-04-29 20:02 | 16.89834 | -63.70392 | 16999 ft | 310 kts | 133° |
| 2026-04-29 20:02 | 16.88405 | -63.68699 | 16999 ft | 310 kts | 133° |
| 2026-04-29 20:02 | 16.87456 | -63.67575 | 16999 ft | 310 kts | 133° |
| 2026-04-29 20:03 | 16.85562 | -63.65334 | 16999 ft | 310 kts | 133° |
| 2026-04-29 20:03 | 16.84133 | -63.63641 | 16999 ft | 310 kts | 133° |
| 2026-04-29 20:03 | 16.82701 | -63.61947 | 16999 ft | 310 kts | 133° |
| 2026-04-29 20:03 | 16.81271 | -63.60256 | 17000 ft | 310 kts | 133° |
| 2026-04-29 20:04 | 16.79842 | -63.58566 | 17000 ft | 310 kts | 133° |
| 2026-04-29 20:04 | 16.78413 | -63.56877 | 17000 ft | 310 kts | 133° |
| 2026-04-29 20:04 | 16.77003 | -63.55209 | 16993 ft | 310 kts | 133° |
| 2026-04-29 20:04 | 16.75570 | -63.53517 | 16990 ft | 310 kts | 133° |
| 2026-04-29 20:05 | 16.74137 | -63.51824 | 16989 ft | 310 kts | 133° |
| 2026-04-29 20:05 | 16.72710 | -63.50139 | 16989 ft | 310 kts | 133° |
| 2026-04-29 20:05 | 16.71279 | -63.48448 | 16988 ft | 310 kts | 134° |
| 2026-04-29 20:05 | 16.69849 | -63.46760 | 16987 ft | 310 kts | 134° |
| 2026-04-29 20:06 | 16.68422 | -63.45076 | 16987 ft | 310 kts | 134° |
| 2026-04-29 20:06 | 16.66991 | -63.43389 | 16988 ft | 310 kts | 134° |
| 2026-04-29 20:06 | 16.65564 | -63.41706 | 16988 ft | 310 kts | 134° |
| 2026-04-29 20:06 | 16.64155 | -63.40043 | 16988 ft | 310 kts | 134° |
| 2026-04-29 20:07 | 16.62726 | -63.38357 | 16988 ft | 310 kts | 134° |
| 2026-04-29 20:07 | 16.61299 | -63.36675 | 16988 ft | 310 kts | 134° |
| 2026-04-29 20:07 | 16.59868 | -63.34988 | 16987 ft | 310 kts | 134° |
| 2026-04-29 20:07 | 16.58437 | -63.33302 | 16986 ft | 310 kts | 134° |
| 2026-04-29 20:08 | 16.57014 | -63.31625 | 16987 ft | 310 kts | 134° |
| 2026-04-29 20:08 | 16.56068 | -63.30511 | 16987 ft | 310 kts | 134° |
| 2026-04-29 20:08 | 16.54155 | -63.28258 | 16987 ft | 310 kts | 134° |
| 2026-04-29 20:08 | 16.53691 | -63.27712 | 16987 ft | 310 kts | 134° |
| 2026-04-29 20:09 | 16.49984 | -63.23349 | 16986 ft | 309 kts | 134° |
| 2026-04-29 20:09 | 16.48554 | -63.21666 | 16986 ft | 309 kts | 134° |
| 2026-04-29 20:09 | 16.47129 | -63.19990 | 16986 ft | 309 kts | 134° |
| 2026-04-29 20:10 | 16.45707 | -63.18316 | 16986 ft | 308 kts | 134° |
| 2026-04-29 20:10 | 16.44278 | -63.16636 | 16986 ft | 308 kts | 134° |
| 2026-04-29 20:10 | 16.42859 | -63.14968 | 16986 ft | 307 kts | 134° |
| 2026-04-29 20:10 | 16.41440 | -63.13300 | 16986 ft | 308 kts | 134° |
| 2026-04-29 20:11 | 16.40034 | -63.11650 | 16986 ft | 308 kts | 134° |
| 2026-04-29 20:11 | 16.38609 | -63.09978 | 16986 ft | 309 kts | 134° |
| 2026-04-29 20:11 | 16.37184 | -63.08304 | 16987 ft | 309 kts | 134° |
| 2026-04-29 20:11 | 16.35757 | -63.06629 | 16986 ft | 309 kts | 134° |
| 2026-04-29 20:12 | 16.34327 | -63.04951 | 16995 ft | 309 kts | 134° |
| 2026-04-29 20:12 | 16.32905 | -63.03281 | 17001 ft | 309 kts | 134° |
| 2026-04-29 20:12 | 16.31474 | -63.01603 | 17003 ft | 309 kts | 134° |
| 2026-04-29 20:12 | 16.30048 | -62.99931 | 17003 ft | 309 kts | 134° |
| 2026-04-29 20:13 | 16.28633 | -62.98272 | 17003 ft | 309 kts | 134° |
| 2026-04-29 20:13 | 16.27683 | -62.97160 | 17004 ft | 309 kts | 134° |
| 2026-04-29 20:13 | 16.25772 | -62.94923 | 17006 ft | 309 kts | 134° |
| 2026-04-29 20:13 | 16.24342 | -62.93248 | 17009 ft | 309 kts | 134° |
| 2026-04-29 20:14 | 16.22911 | -62.91574 | 17010 ft | 309 kts | 134° |
| 2026-04-29 20:14 | 16.21481 | -62.89900 | 17010 ft | 309 kts | 134° |
| 2026-04-29 20:14 | 16.20053 | -62.88228 | 17010 ft | 309 kts | 134° |
| 2026-04-29 20:14 | 16.18643 | -62.86578 | 17010 ft | 309 kts | 134° |
| 2026-04-29 20:15 | 16.17210 | -62.84902 | 17010 ft | 309 kts | 134° |
| 2026-04-29 20:15 | 16.16307 | -62.83846 | 17010 ft | 309 kts | 134° |
| 2026-04-29 20:15 | 16.14872 | -62.82167 | 17010 ft | 309 kts | 134° |
| 2026-04-29 20:15 | 16.13459 | -62.80515 | 17010 ft | 309 kts | 134° |
| 2026-04-29 20:16 | 16.12030 | -62.78844 | 17010 ft | 309 kts | 134° |
| 2026-04-29 20:16 | 16.10598 | -62.77172 | 17010 ft | 309 kts | 134° |
| 2026-04-29 20:16 | 16.09163 | -62.75494 | 17010 ft | 309 kts | 134° |
| 2026-04-29 20:16 | 16.07751 | -62.73845 | 17007 ft | 309 kts | 134° |
| 2026-04-29 20:17 | 16.06322 | -62.72175 | 17001 ft | 309 kts | 134° |
| 2026-04-29 20:17 | 16.04888 | -62.70500 | 16999 ft | 309 kts | 134° |
| 2026-04-29 20:17 | 16.03458 | -62.68830 | 16998 ft | 309 kts | 134° |
| 2026-04-29 20:17 | 16.02027 | -62.67160 | 16994 ft | 309 kts | 134° |
| 2026-04-29 20:18 | 16.00598 | -62.65492 | 16991 ft | 309 kts | 134° |
| 2026-04-29 20:18 | 15.99165 | -62.63817 | 16989 ft | 309 kts | 134° |
| 2026-04-29 20:18 | 15.97738 | -62.62150 | 16988 ft | 308 kts | 134° |
| 2026-04-29 20:18 | 15.96311 | -62.60484 | 16987 ft | 308 kts | 134° |
| 2026-04-29 20:19 | 15.94900 | -62.58840 | 16988 ft | 308 kts | 134° |
| 2026-04-29 20:19 | 15.93475 | -62.57176 | 16987 ft | 308 kts | 134° |
| 2026-04-29 20:19 | 15.92050 | -62.55512 | 16988 ft | 308 kts | 134° |
| 2026-04-29 20:19 | 15.90619 | -62.53845 | 16991 ft | 307 kts | 134° |
| 2026-04-29 20:20 | 15.89178 | -62.52169 | 16752 ft | 314 kts | 134° |
| 2026-04-29 20:20 | 15.87741 | -62.50497 | 16549 ft | 310 kts | 134° |
| 2026-04-29 20:20 | 15.86327 | -62.48848 | 16346 ft | 299 kts | 134° |
| 2026-04-29 20:20 | 15.84956 | -62.47252 | 16144 ft | 292 kts | 134° |
| 2026-04-29 20:21 | 15.83617 | -62.45695 | 15943 ft | 287 kts | 133° |
| 2026-04-29 20:21 | 15.82289 | -62.44152 | 15742 ft | 284 kts | 133° |
| 2026-04-29 20:21 | 15.80975 | -62.42627 | 15541 ft | 282 kts | 133° |
| 2026-04-29 20:21 | 15.79671 | -62.41113 | 15341 ft | 282 kts | 133° |
| 2026-04-29 20:22 | 15.78352 | -62.39583 | 15141 ft | 286 kts | 133° |
| 2026-04-29 20:22 | 15.77035 | -62.38055 | 14943 ft | 286 kts | 133° |
| 2026-04-29 20:22 | 15.75709 | -62.36515 | 14743 ft | 285 kts | 133° |
| 2026-04-29 20:22 | 15.74385 | -62.34978 | 14542 ft | 285 kts | 133° |
| 2026-04-29 20:23 | 15.73062 | -62.33439 | 14341 ft | 284 kts | 133° |
| 2026-04-29 20:23 | 15.71744 | -62.31908 | 14141 ft | 284 kts | 133° |
| 2026-04-29 20:23 | 15.70439 | -62.30392 | 13942 ft | 284 kts | 132° |
| 2026-04-29 20:23 | 15.69121 | -62.28863 | 13741 ft | 283 kts | 132° |
| 2026-04-29 20:24 | 15.67805 | -62.27337 | 13541 ft | 283 kts | 132° |
| 2026-04-29 20:24 | 15.66494 | -62.25815 | 13341 ft | 283 kts | 132° |
| 2026-04-29 20:24 | 15.65181 | -62.24292 | 13141 ft | 283 kts | 132° |
| 2026-04-29 20:24 | 15.63868 | -62.22769 | 12940 ft | 282 kts | 132° |
| 2026-04-29 20:25 | 15.62631 | -62.21189 | 12732 ft | 282 kts | 122° |
| 2026-04-29 20:25 | 15.61810 | -62.19370 | 12548 ft | 279 kts | 107° |
| 2026-04-29 20:25 | 15.61450 | -62.17404 | 12353 ft | 278 kts | 96° |
| 2026-04-29 20:25 | 15.61359 | -62.15398 | 12154 ft | 278 kts | 90° |
| 2026-04-29 20:26 | 15.61415 | -62.13418 | 11957 ft | 277 kts | 87° |
| 2026-04-29 20:26 | 15.61550 | -62.11425 | 11757 ft | 276 kts | 85° |
| 2026-04-29 20:26 | 15.61726 | -62.09447 | 11557 ft | 275 kts | 84° |
| 2026-04-29 20:26 | 15.61919 | -62.07478 | 11356 ft | 274 kts | 84° |
| 2026-04-29 20:27 | 15.62117 | -62.05507 | 11155 ft | 273 kts | 84° |
| 2026-04-29 20:27 | 15.62180 | -62.04877 | 11090 ft | 272 kts | 84° |
| 2026-04-29 20:27 | 15.62501 | -62.01631 | 10757 ft | 271 kts | 85° |
| 2026-04-29 20:27 | 15.62690 | -61.99687 | 10556 ft | 270 kts | 85° |
| 2026-04-29 20:28 | 15.62876 | -61.97754 | 10355 ft | 268 kts | 85° |
| 2026-04-29 20:28 | 15.63059 | -61.95826 | 10154 ft | 267 kts | 85° |
| 2026-04-29 20:28 | 15.63179 | -61.94554 | 10021 ft | 267 kts | 85° |
| 2026-04-29 20:28 | 15.63415 | -61.92023 | 9756 ft | 265 kts | 85° |
| 2026-04-29 20:29 | 15.63591 | -61.90122 | 9555 ft | 264 kts | 85° |
| 2026-04-29 20:29 | 15.63766 | -61.88228 | 9355 ft | 263 kts | 86° |
| 2026-04-29 20:29 | 15.63882 | -61.86973 | 9222 ft | 262 kts | 86° |
| 2026-04-29 20:29 | 15.64054 | -61.85095 | 9021 ft | 261 kts | 86° |
| 2026-04-29 20:30 | 15.64226 | -61.83220 | 8820 ft | 259 kts | 86° |
| 2026-04-29 20:30 | 15.64395 | -61.81367 | 8620 ft | 257 kts | 86° |
| 2026-04-29 20:30 | 15.64563 | -61.79522 | 8420 ft | 256 kts | 86° |
| 2026-04-29 20:30 | 15.64731 | -61.77676 | 8218 ft | 255 kts | 86° |
| 2026-04-29 20:31 | 15.64894 | -61.75875 | 8021 ft | 254 kts | 86° |
| 2026-04-29 20:31 | 15.65059 | -61.74056 | 7820 ft | 253 kts | 86° |
| 2026-04-29 20:31 | 15.65225 | -61.72232 | 7619 ft | 252 kts | 86° |
| 2026-04-29 20:31 | 15.65389 | -61.70426 | 7418 ft | 251 kts | 86° |
| 2026-04-29 20:32 | 15.65553 | -61.68623 | 7217 ft | 249 kts | 86° |
| 2026-04-29 20:32 | 15.65685 | -61.67171 | 7055 ft | 249 kts | 86° |
| 2026-04-29 20:32 | 15.65715 | -61.66836 | 7017 ft | 248 kts | 86° |
| 2026-04-29 20:32 | 15.65875 | -61.65071 | 6819 ft | 247 kts | 86° |
| 2026-04-29 20:33 | 15.66036 | -61.63296 | 6618 ft | 247 kts | 86° |
| 2026-04-29 20:33 | 15.66196 | -61.61522 | 6417 ft | 246 kts | 86° |
| 2026-04-29 20:33 | 15.66354 | -61.59789 | 6215 ft | 233 kts | 86° |
| 2026-04-29 20:33 | 15.66507 | -61.58117 | 6013 ft | 235 kts | 86° |
| 2026-04-29 20:34 | 15.66659 | -61.56414 | 5817 ft | 245 kts | 86° |
| 2026-04-29 20:34 | 15.66817 | -61.54635 | 5618 ft | 250 kts | 86° |
| 2026-04-29 20:34 | 15.66980 | -61.52816 | 5417 ft | 253 kts | 86° |
| 2026-04-29 20:34 | 15.67145 | -61.50990 | 5217 ft | 254 kts | 86° |
| 2026-04-29 20:35 | 15.67310 | -61.49169 | 5017 ft | 254 kts | 86° |
| 2026-04-29 20:35 | 15.67472 | -61.47359 | 4818 ft | 254 kts | 86° |
| 2026-04-29 20:35 | 15.67635 | -61.45548 | 4617 ft | 247 kts | 86° |
| 2026-04-29 20:35 | 15.67790 | -61.43837 | 4415 ft | 229 kts | 86° |
| 2026-04-29 20:36 | 15.67936 | -61.42234 | 4212 ft | 218 kts | 86° |
| 2026-04-29 20:36 | 15.68076 | -61.40673 | 4012 ft | 218 kts | 86° |
| 2026-04-29 20:36 | 15.68217 | -61.39091 | 3811 ft | 220 kts | 86° |
| 2026-04-29 20:36 | 15.68357 | -61.37514 | 3610 ft | 218 kts | 86° |
| 2026-04-29 20:37 | 15.68494 | -61.35977 | 3412 ft | 215 kts | 86° |
| 2026-04-29 20:37 | 15.68632 | -61.34431 | 3211 ft | 214 kts | 86° |
| 2026-04-29 20:37 | 15.68768 | -61.32896 | 3011 ft | 213 kts | 86° |
| 2026-04-29 20:37 | 15.68903 | -61.31374 | 2811 ft | 213 kts | 86° |
| 2026-04-29 20:38 | 15.69039 | -61.29838 | 2609 ft | 211 kts | 86° |
| 2026-04-29 20:38 | 15.69172 | -61.28340 | 2411 ft | 211 kts | 86° |
| 2026-04-29 20:38 | 15.69308 | -61.26820 | 2210 ft | 211 kts | 86° |
| 2026-04-29 20:38 | 15.69443 | -61.25304 | 2010 ft | 210 kts | 86° |
| 2026-04-29 20:39 | 15.69576 | -61.23794 | 1844 ft | 209 kts | 86° |
| 2026-04-29 20:39 | 15.69709 | -61.22296 | 1739 ft | 207 kts | 86° |
| 2026-04-29 20:39 | 15.69840 | -61.20808 | 1708 ft | 208 kts | 86° |
| 2026-04-29 20:39 | 15.69972 | -61.19313 | 1701 ft | 211 kts | 86° |
| 2026-04-29 20:40 | 15.70078 | -61.17914 | 1697 ft | 211 kts | 90° |
| 2026-04-29 20:40 | 15.69768 | -61.16453 | 1696 ft | 208 kts | 115° |
| 2026-04-29 20:40 | 15.68859 | -61.15291 | 1705 ft | 209 kts | 137° |
| 2026-04-29 20:40 | 15.67656 | -61.14435 | 1703 ft | 210 kts | 148° |
| 2026-04-29 20:41 | 15.66360 | -61.13731 | 1700 ft | 211 kts | 152° |
| 2026-04-29 20:41 | 15.65043 | -61.13073 | 1698 ft | 208 kts | 152° |
| 2026-04-29 20:41 | 15.63751 | -61.12415 | 1698 ft | 205 kts | 151° |
| 2026-04-29 20:41 | 15.62473 | -61.11770 | 1692 ft | 205 kts | 156° |
| 2026-04-29 20:42 | 15.61060 | -61.11616 | 1695 ft | 208 kts | 184° |
| 2026-04-29 20:42 | 15.59709 | -61.12176 | 1698 ft | 213 kts | 211° |
| 2026-04-29 20:42 | 15.58739 | -61.13321 | 1699 ft | 218 kts | 238° |
| 2026-04-29 20:42 | 15.58346 | -61.14837 | 1700 ft | 220 kts | 265° |
| 2026-04-29 20:43 | 15.58498 | -61.16390 | 1706 ft | 214 kts | 279° |
| 2026-04-29 20:43 | 15.58685 | -61.17901 | 1695 ft | 208 kts | 270° |
| 2026-04-29 20:43 | 15.58750 | -61.19433 | 1506 ft | 213 kts | 274° |
| 2026-04-29 20:43 | 15.58931 | -61.20934 | 1390 ft | 199 kts | 277° |
| 2026-04-29 20:44 | 15.59129 | -61.22231 | 1272 ft | 164 kts | 277° |
| 2026-04-29 20:44 | 15.59285 | -61.23326 | 1202 ft | 151 kts | 272° |
| 2026-04-29 20:44 | 15.59193 | -61.24395 | 1196 ft | 148 kts | 256° |
| 2026-04-29 20:44 | 15.58983 | -61.25436 | 1198 ft | 148 kts | 254° |
| 2026-04-29 20:45 | 15.58750 | -61.26485 | 1200 ft | 149 kts | 253° |
| 2026-04-29 20:45 | 15.58524 | -61.27498 | 1187 ft | 144 kts | 253° |
| 2026-04-29 20:45 | 15.58285 | -61.28537 | 1207 ft | 151 kts | 253° |
| 2026-04-29 20:45 | 15.58037 | -61.29610 | 1205 ft | 154 kts | 253° |
| 2026-04-29 20:46 | 15.57786 | -61.30692 | 1202 ft | 154 kts | 253° |
| 2026-04-29 20:46 | 15.57535 | -61.31772 | 1202 ft | 154 kts | 253° |
| 2026-04-29 20:46 | 15.57285 | -61.32842 | 1199 ft | 154 kts | 253° |
| 2026-04-29 20:46 | 15.57027 | -61.33920 | 1197 ft | 154 kts | 249° |
| 2026-04-29 20:47 | 15.56425 | -61.34797 | 1153 ft | 147 kts | 213° |
| 2026-04-29 20:47 | 15.55506 | -61.34936 | 1158 ft | 134 kts | 156° |
| 2026-04-29 20:47 | 15.54704 | -61.34480 | 1232 ft | 128 kts | 142° |
| 2026-04-29 20:47 | 15.54069 | -61.33815 | 1093 ft | 135 kts | 117° |
| 2026-04-29 20:48 | 15.53756 | -61.32958 | 789 ft | 120 kts | 111° |
| 2026-04-29 20:48 | 15.53913 | -61.32147 | 436 ft | 120 kts | 66° |
| 2026-04-29 20:48 | 15.54231 | -61.31379 | 277 ft | 118 kts | 76° |
| 2026-04-29 20:48 | 15.54502 | -61.30593 | 92 ft | 109 kts | 73° |
| 2026-04-29 20:49 | 15.54693 | -61.30042 | 61 ft | 43 kts | 81° |
| 2026-04-29 20:49 | 15.54707 | -61.29917 | 61 ft | 0 kts | 181° |
| 2026-04-29 20:49 | 15.54656 | -61.29948 | 61 ft | 11 kts | 212° |
| 2026-04-29 20:49 | 15.54652 | -61.29951 | 61 ft | 0 kts | 212° |
| 2026-04-29 20:50 | 15.54628 | -61.29970 | 61 ft | 13 kts | 229° |
| 2026-04-29 20:50 | 15.54585 | -61.30070 | 61 ft | 5 kts | 251° |
| 2026-04-29 20:50 | 15.54582 | -61.30078 | 61 ft | 0 kts | 252° |